createdAt,value
2023-03-30T00:01:12.023Z,24.04
2023-03-30T00:03:43.695Z,24.02
2023-03-30T00:06:11.552Z,24.03
2023-03-30T00:08:39.019Z,24.01
2023-03-30T00:11:08.749Z,24.01
2023-03-30T00:13:36.560Z,24.01
2023-03-30T00:16:04.886Z,24.01
2023-03-30T00:18:34.338Z,23.99
2023-03-30T00:21:05.345Z,23.99
2023-03-30T00:23:33.427Z,23.99
2023-03-30T00:26:00.937Z,23.98
2023-03-30T00:28:30.901Z,23.96
2023-03-30T00:30:58.917Z,23.95
2023-03-30T00:33:41.222Z,23.95
2023-03-30T00:36:09.987Z,23.95
2023-03-30T00:38:37.715Z,23.94
2023-03-30T00:41:05.609Z,23.94
2023-03-30T00:43:33.706Z,23.92
2023-03-30T00:46:01.594Z,23.92
2023-03-30T00:48:34.609Z,23.92
2023-03-30T00:51:09.478Z,23.91
2023-03-30T00:53:58.309Z,23.89
2023-03-30T00:56:27.296Z,23.88
2023-03-30T00:58:55.540Z,23.88
2023-03-30T01:01:28.704Z,23.88
2023-03-30T01:03:59.444Z,23.88
2023-03-30T01:06:29.872Z,23.86
2023-03-30T01:09:00.847Z,23.86
2023-03-30T01:11:28.542Z,23.86
2023-03-30T01:14:01.308Z,23.85
2023-03-30T01:16:36.100Z,23.85
2023-03-30T01:19:25.816Z,23.84
2023-03-30T01:22:12.860Z,23.85
2023-03-30T01:25:03.330Z,23.83
2023-03-30T01:28:08.260Z,23.84
2023-03-30T01:31:12.690Z,23.83
2023-03-30T01:34:18.115Z,23.81
2023-03-30T01:36:54.390Z,23.79
2023-03-30T01:39:33.243Z,23.75
2023-03-30T01:42:09.323Z,23.74
2023-03-30T01:44:51.711Z,23.74
2023-03-30T01:47:25.284Z,23.76
2023-03-30T01:50:06.612Z,23.74
2023-03-30T01:52:42.572Z,23.75
2023-03-30T01:55:12.066Z,23.74
2023-03-30T01:58:03.739Z,23.73
2023-03-30T02:00:31.558Z,23.73
2023-03-30T02:03:24.863Z,23.72
2023-03-30T02:05:53.798Z,23.72
2023-03-30T02:08:24.015Z,23.70
2023-03-30T02:10:51.847Z,23.69
2023-03-30T02:13:19.294Z,23.68
2023-03-30T02:15:50.466Z,23.67
2023-03-30T02:18:19.958Z,23.67
2023-03-30T02:20:49.495Z,23.75
2023-03-30T02:23:20.736Z,23.68
2023-03-30T02:25:48.514Z,23.66
2023-03-30T02:28:18.491Z,23.64
2023-03-30T02:30:45.983Z,23.64
2023-03-30T02:33:35.676Z,23.62
2023-03-30T02:36:21.874Z,23.65
2023-03-30T02:38:58.406Z,23.62
2023-03-30T02:42:00.619Z,23.60
2023-03-30T02:44:34.573Z,23.60
2023-03-30T02:47:07.057Z,23.59
2023-03-30T02:49:53.789Z,23.57
2023-03-30T02:52:43.174Z,23.59
2023-03-30T02:55:23.422Z,23.57
2023-03-30T02:58:03.246Z,23.57
2023-03-30T03:00:41.629Z,23.56
2023-03-30T03:03:34.541Z,23.56
2023-03-30T03:06:02.634Z,23.58
2023-03-30T03:08:34.145Z,23.56
2023-03-30T03:11:02.285Z,23.54
2023-03-30T03:13:30.333Z,23.54
2023-03-30T03:15:58.278Z,23.54
2023-03-30T03:18:27.044Z,23.52
2023-03-30T03:20:54.685Z,23.54
2023-03-30T03:23:23.193Z,23.52
2023-03-30T03:25:51.503Z,23.52
2023-03-30T03:28:19.312Z,23.52
2023-03-30T03:30:49.056Z,23.51
2023-03-30T03:33:17.035Z,23.50
2023-03-30T03:35:45.849Z,23.50
2023-03-30T03:38:14.066Z,23.51
2023-03-30T03:40:42.106Z,23.50
2023-03-30T03:43:09.707Z,23.48
2023-03-30T03:45:37.198Z,23.48
2023-03-30T03:48:05.089Z,23.48
2023-03-30T03:50:33.082Z,23.48
2023-03-30T03:53:00.592Z,23.47
2023-03-30T03:55:29.235Z,23.47
2023-03-30T03:57:57.526Z,23.46
2023-03-30T04:00:26.754Z,23.47
2023-03-30T04:02:54.727Z,23.47
2023-03-30T04:05:22.211Z,23.49
2023-03-30T04:07:50.112Z,23.45
2023-03-30T04:10:18.106Z,23.44
2023-03-30T04:12:46.068Z,23.41
2023-03-30T04:15:13.925Z,23.38
2023-03-30T04:17:42.148Z,23.38
2023-03-30T04:20:12.645Z,23.36
2023-03-30T04:22:42.057Z,23.35
2023-03-30T04:25:15.801Z,23.33
2023-03-30T04:27:44.217Z,23.31
2023-03-30T04:30:13.265Z,23.29
2023-03-30T04:32:42.328Z,23.27
2023-03-30T04:35:11.218Z,23.35
2023-03-30T04:37:42.197Z,23.26
2023-03-30T04:40:11.094Z,23.24
2023-03-30T04:42:39.741Z,23.23
2023-03-30T04:45:08.157Z,23.21
2023-03-30T04:47:36.423Z,23.19
2023-03-30T04:50:05.182Z,23.17
2023-03-30T04:52:34.567Z,23.17
2023-03-30T04:55:05.139Z,23.17
2023-03-30T04:57:33.530Z,23.15
2023-03-30T05:00:01.410Z,23.14
2023-03-30T05:02:30.212Z,23.13
2023-03-30T05:04:59.200Z,23.12
2023-03-30T05:07:27.268Z,23.12
2023-03-30T05:09:56.081Z,23.10
2023-03-30T05:12:23.760Z,23.09
2023-03-30T05:14:51.300Z,23.08
2023-03-30T05:17:19.601Z,23.08
2023-03-30T05:19:50.105Z,23.07
2023-03-30T05:22:18.444Z,23.07
2023-03-30T05:24:46.248Z,23.05
2023-03-30T05:27:14.120Z,23.06
2023-03-30T05:29:42.190Z,23.04
2023-03-30T05:32:11.989Z,23.03
2023-03-30T05:34:39.618Z,23.04
2023-03-30T05:37:08.304Z,23.02
2023-03-30T05:39:37.871Z,23.01
2023-03-30T05:42:05.881Z,23.02
2023-03-30T05:44:33.896Z,23.00
2023-03-30T05:47:03.216Z,22.99
2023-03-30T05:49:31.669Z,22.98
2023-03-30T05:52:01.892Z,22.98
2023-03-30T05:54:29.729Z,22.98
2023-03-30T05:56:57.726Z,22.97
2023-03-30T05:59:25.647Z,22.96
2023-03-30T06:01:53.174Z,22.97
2023-03-30T06:04:21.726Z,22.96
2023-03-30T06:06:49.859Z,22.94
2023-03-30T06:09:17.362Z,22.95
2023-03-30T06:11:46.048Z,22.94
2023-03-30T06:14:14.558Z,22.93
2023-03-30T06:16:44.632Z,22.93
2023-03-30T06:19:15.191Z,22.92
2023-03-30T06:21:42.888Z,22.92
2023-03-30T06:24:12.943Z,22.92
2023-03-30T06:26:41.904Z,22.90
2023-03-30T06:29:09.711Z,22.89
2023-03-30T06:31:37.497Z,22.89
2023-03-30T06:34:08.069Z,22.90
2023-03-30T06:36:44.843Z,22.89
2023-03-30T06:39:14.534Z,22.90
2023-03-30T06:41:42.519Z,22.91
2023-03-30T06:44:15.512Z,22.92
2023-03-30T06:46:47.093Z,22.93
2023-03-30T06:49:15.088Z,22.93
2023-03-30T06:51:47.239Z,22.94
2023-03-30T06:54:15.047Z,22.96
2023-03-30T06:56:43.315Z,22.96
2023-03-30T06:59:10.920Z,22.97
2023-03-30T07:01:40.080Z,22.97
2023-03-30T07:04:09.670Z,22.98
2023-03-30T07:06:37.878Z,22.99
2023-03-30T07:09:05.778Z,23.00
2023-03-30T07:11:33.572Z,23.00
2023-03-30T07:14:02.468Z,23.02
2023-03-30T07:16:30.752Z,23.01
2023-03-30T07:18:58.289Z,23.02
2023-03-30T07:21:26.125Z,23.02
2023-03-30T07:23:53.851Z,23.04
2023-03-30T07:26:24.114Z,23.03
2023-03-30T07:28:52.278Z,23.04
2023-03-30T07:31:21.942Z,23.06
2023-03-30T07:33:50.159Z,23.07
2023-03-30T07:36:18.861Z,23.07
2023-03-30T07:38:47.398Z,23.07
2023-03-30T07:41:15.674Z,23.09
2023-03-30T07:43:43.798Z,23.08
2023-03-30T07:46:14.563Z,23.09
2023-03-30T07:48:43.098Z,23.10
2023-03-30T07:51:12.397Z,23.11
2023-03-30T07:53:42.302Z,23.12
2023-03-30T07:56:10.551Z,23.13
2023-03-30T07:58:39.967Z,23.13
2023-03-30T08:01:08.305Z,23.13
2023-03-30T08:03:37.553Z,23.14
2023-03-30T08:06:05.746Z,23.23
2023-03-30T08:08:33.972Z,23.19
2023-03-30T08:11:02.623Z,23.15
2023-03-30T08:13:49.220Z,23.15
2023-03-30T08:16:17.072Z,23.16
2023-03-30T08:18:47.331Z,23.16
2023-03-30T08:21:14.590Z,23.17
2023-03-30T08:23:42.419Z,23.26
2023-03-30T08:26:09.945Z,23.20
2023-03-30T08:28:38.197Z,23.19
2023-03-30T08:31:06.660Z,23.19
2023-03-30T08:33:35.026Z,23.19
2023-03-30T08:36:03.569Z,23.19
2023-03-30T08:38:31.671Z,23.19
2023-03-30T08:40:59.211Z,23.21
2023-03-30T08:43:48.522Z,23.21
2023-03-30T08:46:17.703Z,23.22
2023-03-30T08:48:45.390Z,23.23
2023-03-30T08:51:24.608Z,23.23
2023-03-30T08:53:55.926Z,23.24
2023-03-30T08:56:30.777Z,23.25
2023-03-30T08:58:58.522Z,23.26
2023-03-30T09:01:31.903Z,23.26
2023-03-30T09:04:23.826Z,23.27
2023-03-30T09:06:52.287Z,23.28
2023-03-30T09:09:21.902Z,23.27
2023-03-30T09:11:53.400Z,23.27
2023-03-30T09:14:54.302Z,23.29
2023-03-30T09:17:25.600Z,23.32
2023-03-30T09:19:58.589Z,23.30
2023-03-30T09:22:32.474Z,23.31
2023-03-30T09:25:00.232Z,23.31
2023-03-30T09:27:45.758Z,23.32
2023-03-30T09:30:19.093Z,23.33
2023-03-30T09:32:53.092Z,23.33
2023-03-30T09:35:25.128Z,23.33
2023-03-30T09:37:52.818Z,23.35
2023-03-30T09:40:30.497Z,23.35
2023-03-30T09:43:09.962Z,23.37
2023-03-30T09:45:38.094Z,23.37
2023-03-30T09:48:06.961Z,23.46
2023-03-30T09:50:45.867Z,23.38
2023-03-30T09:53:29.509Z,23.37
2023-03-30T09:56:16.491Z,23.37
2023-03-30T09:58:44.283Z,23.37
2023-03-30T10:01:18.455Z,23.36
2023-03-30T10:04:05.305Z,23.36
2023-03-30T10:06:55.129Z,23.35
2023-03-30T10:09:23.748Z,23.34
2023-03-30T10:11:52.112Z,23.35
2023-03-30T10:14:28.216Z,23.34
2023-03-30T10:16:56.715Z,23.35
2023-03-30T10:19:25.140Z,23.33
2023-03-30T10:21:55.159Z,23.32
2023-03-30T10:24:23.658Z,23.31
2023-03-30T10:27:18.221Z,23.39
2023-03-30T10:29:46.903Z,23.34
2023-03-30T10:32:21.590Z,23.29
2023-03-30T10:34:56.811Z,23.27
2023-03-30T10:37:41.305Z,23.26
2023-03-30T10:40:19.095Z,23.26
2023-03-30T10:42:48.429Z,23.24
2023-03-30T10:45:18.849Z,23.22
2023-03-30T10:47:55.333Z,23.23
2023-03-30T10:50:41.825Z,23.31
2023-03-30T10:53:30.730Z,23.23
2023-03-30T10:56:08.046Z,23.17
2023-03-30T10:58:59.858Z,23.11
2023-03-30T11:01:43.250Z,23.07
2023-03-30T11:04:23.331Z,23.02
2023-03-30T11:06:54.573Z,22.97
2023-03-30T11:09:25.016Z,22.96
2023-03-30T11:11:54.561Z,22.95
2023-03-30T11:14:44.144Z,22.96
2023-03-30T11:17:16.479Z,22.96
2023-03-30T11:19:47.517Z,23.05
2023-03-30T11:22:17.230Z,23.16
2023-03-30T11:24:44.961Z,23.32
2023-03-30T11:27:22.294Z,23.44
2023-03-30T11:29:53.873Z,23.58
2023-03-30T11:33:06.532Z,23.70
2023-03-30T11:35:48.109Z,23.90
2023-03-30T11:38:39.600Z,24.03
2023-03-30T11:41:13.621Z,24.17
2023-03-30T11:43:41.467Z,24.28
2023-03-30T11:46:23.533Z,24.36
2023-03-30T11:49:05.768Z,24.47
2023-03-30T11:52:01.565Z,24.52
2023-03-30T11:54:59.850Z,24.62
2023-03-30T11:57:40.677Z,24.73
2023-03-30T12:00:41.139Z,24.82
2023-03-30T12:03:42.824Z,24.88
2023-03-30T12:06:13.444Z,24.93
2023-03-30T12:09:01.297Z,24.95
2023-03-30T12:11:50.070Z,24.99
2023-03-30T12:14:43.040Z,25.01
2023-03-30T12:17:44.572Z,25.01
2023-03-30T12:20:18.089Z,25.03
2023-03-30T12:23:10.237Z,25.00
2023-03-30T12:25:56.669Z,25.01
2023-03-30T12:28:29.821Z,24.99
2023-03-30T12:31:04.194Z,24.96
2023-03-30T12:33:44.284Z,24.96
2023-03-30T12:36:38.354Z,24.93
2023-03-30T12:39:22.002Z,24.93
2023-03-30T12:41:50.325Z,24.88
2023-03-30T12:44:29.310Z,24.86
2023-03-30T12:47:15.781Z,24.85
2023-03-30T12:50:08.857Z,24.83
2023-03-30T12:52:39.144Z,24.81
2023-03-30T12:55:50.033Z,24.76
2023-03-30T12:59:00.053Z,24.75
2023-03-30T13:01:27.911Z,24.72
2023-03-30T13:03:59.627Z,24.67
2023-03-30T13:06:30.039Z,24.64
2023-03-30T13:09:22.247Z,24.62
2023-03-30T13:11:50.128Z,24.61
2023-03-30T13:14:29.971Z,24.57
2023-03-30T13:17:00.834Z,24.54
2023-03-30T13:20:26.112Z,24.50
2023-03-30T13:23:12.446Z,24.51
2023-03-30T13:25:49.890Z,24.47
2023-03-30T13:28:48.284Z,24.42
2023-03-30T13:31:26.313Z,24.40
2023-03-30T13:34:20.046Z,24.36
2023-03-30T13:37:09.285Z,24.35
2023-03-30T13:39:45.916Z,24.30
2023-03-30T13:42:23.906Z,24.27
2023-03-30T13:44:57.508Z,24.25
2023-03-30T13:47:41.198Z,24.22
2023-03-30T13:50:31.171Z,24.22
2023-03-30T13:52:59.635Z,24.19
2023-03-30T13:55:40.652Z,24.16
2023-03-30T13:58:33.632Z,24.13
2023-03-30T14:01:01.931Z,24.13
2023-03-30T14:03:32.628Z,24.17
2023-03-30T14:06:03.006Z,24.24
2023-03-30T14:08:34.450Z,24.30
2023-03-30T14:11:27.083Z,24.37
2023-03-30T14:13:55.014Z,24.42
2023-03-30T14:16:42.813Z,24.49
2023-03-30T14:19:30.873Z,24.59
2023-03-30T14:22:00.919Z,24.67
2023-03-30T14:24:33.204Z,24.80
2023-03-30T14:27:12.241Z,24.92
2023-03-30T14:29:47.394Z,25.06
2023-03-30T14:32:15.985Z,25.18
2023-03-30T14:34:48.442Z,25.26
2023-03-30T14:37:16.116Z,25.36
2023-03-30T14:39:46.143Z,25.46
2023-03-30T14:42:17.576Z,25.55
2023-03-30T14:44:46.774Z,25.65
2023-03-30T14:47:15.384Z,25.75
2023-03-30T14:49:43.615Z,25.84
2023-03-30T14:52:17.349Z,25.92
2023-03-30T14:54:57.646Z,26.00
2023-03-30T14:57:34.759Z,26.09
2023-03-30T15:00:08.182Z,26.17
2023-03-30T15:02:37.585Z,26.23
2023-03-30T15:05:05.366Z,26.26
2023-03-30T15:07:32.894Z,26.29
2023-03-30T15:10:00.669Z,26.30
2023-03-30T15:12:36.088Z,26.32
2023-03-30T15:15:06.184Z,26.34
2023-03-30T15:17:33.703Z,26.32
2023-03-30T15:20:01.424Z,26.33
2023-03-30T15:22:55.824Z,26.31
2023-03-30T15:25:33.191Z,26.31
2023-03-30T15:28:04.165Z,26.27
2023-03-30T15:30:37.885Z,26.23
2023-03-30T15:33:07.467Z,26.19
2023-03-30T15:35:36.448Z,26.17
2023-03-30T15:38:10.590Z,26.14
2023-03-30T15:40:42.738Z,26.11
2023-03-30T15:43:30.212Z,26.07
2023-03-30T15:46:12.815Z,26.04
2023-03-30T15:48:43.233Z,25.99
2023-03-30T15:51:13.787Z,25.94
2023-03-30T15:53:55.747Z,25.91
2023-03-30T15:56:27.353Z,25.97
2023-03-30T15:58:54.885Z,25.85
2023-03-30T16:01:23.412Z,25.79
2023-03-30T16:03:54.756Z,25.75
2023-03-30T16:06:22.902Z,25.70
2023-03-30T16:08:50.696Z,25.67
2023-03-30T16:11:18.751Z,25.63
2023-03-30T16:13:47.328Z,25.60
2023-03-30T16:16:15.744Z,25.56
2023-03-30T16:18:43.199Z,25.53
2023-03-30T16:21:11.085Z,25.50
2023-03-30T16:23:39.037Z,25.45
2023-03-30T16:26:09.553Z,25.42
2023-03-30T16:28:37.094Z,25.38
2023-03-30T16:31:16.220Z,25.36
2023-03-30T16:33:44.401Z,25.33
2023-03-30T16:36:18.050Z,25.30
2023-03-30T16:38:45.778Z,25.26
2023-03-30T16:41:21.368Z,25.23
2023-03-30T16:43:49.772Z,25.20
2023-03-30T16:46:20.998Z,25.21
2023-03-30T16:48:48.491Z,25.23
2023-03-30T16:51:16.803Z,25.29
2023-03-30T16:53:46.505Z,25.35
2023-03-30T16:56:16.890Z,25.41
2023-03-30T16:58:47.601Z,25.49
2023-03-30T17:01:18.623Z,25.57
2023-03-30T17:03:47.547Z,25.65
2023-03-30T17:06:17.101Z,25.75
2023-03-30T17:08:45.636Z,25.82
2023-03-30T17:11:14.209Z,25.89
2023-03-30T17:14:02.158Z,25.94
2023-03-30T17:17:12.015Z,26.02
2023-03-30T17:20:02.996Z,26.06
2023-03-30T17:23:11.319Z,26.08
2023-03-30T17:26:00.242Z,26.11
2023-03-30T17:28:32.254Z,26.11
2023-03-30T17:31:01.726Z,26.11
2023-03-30T17:34:10.481Z,26.11
2023-03-30T17:36:58.542Z,26.22
2023-03-30T17:40:25.409Z,26.13
2023-03-30T17:42:57.065Z,26.11
2023-03-30T17:45:48.429Z,26.07
2023-03-30T17:48:20.797Z,26.06
2023-03-30T17:50:51.708Z,26.02
2023-03-30T17:53:21.391Z,26.00
2023-03-30T17:56:14.409Z,25.99
2023-03-30T17:59:04.434Z,25.98
2023-03-30T18:01:59.397Z,25.95
2023-03-30T18:04:35.794Z,25.94
2023-03-30T18:07:05.940Z,25.90
2023-03-30T18:09:49.695Z,25.89
2023-03-30T18:12:20.421Z,25.86
2023-03-30T18:14:51.149Z,25.84
2023-03-30T18:17:19.678Z,25.83
2023-03-30T18:19:49.123Z,25.79
2023-03-30T18:22:18.227Z,25.80
2023-03-30T18:24:46.829Z,25.77
2023-03-30T18:27:15.872Z,25.77
2023-03-30T18:32:44.299Z,25.73
2023-03-30T18:35:16.636Z,25.69
2023-03-30T18:38:06.206Z,25.68
2023-03-30T18:41:05.505Z,25.65
2023-03-30T18:43:55.924Z,25.65
2023-03-30T18:47:06.611Z,25.59
2023-03-30T18:49:55.459Z,25.57
2023-03-30T18:52:29.837Z,25.55
2023-03-30T18:55:20.336Z,25.52
2023-03-30T18:58:17.195Z,25.53
2023-03-30T19:01:00.823Z,25.54
2023-03-30T19:04:15.069Z,25.49
2023-03-30T19:06:45.129Z,25.49
2023-03-30T19:09:43.113Z,25.46
2023-03-30T19:12:13.659Z,25.46
2023-03-30T19:14:44.207Z,25.46
2023-03-30T19:17:13.702Z,25.44
2023-03-30T19:20:02.724Z,25.43
2023-03-30T19:22:53.788Z,25.44
2023-03-30T19:26:02.859Z,25.40
2023-03-30T19:28:52.126Z,25.40
2023-03-30T19:31:22.429Z,25.37
2023-03-30T19:33:51.972Z,25.35
2023-03-30T19:37:00.844Z,25.32
2023-03-30T19:39:29.131Z,25.32
2023-03-30T19:41:58.466Z,25.29
2023-03-30T19:44:27.388Z,25.30
2023-03-30T19:46:57.451Z,25.27
2023-03-30T19:49:26.641Z,25.24
2023-03-30T19:51:55.724Z,25.24
2023-03-30T19:54:24.262Z,25.22
2023-03-30T19:56:53.676Z,25.18
2023-03-30T19:59:22.372Z,25.17
2023-03-30T20:01:52.648Z,25.16
2023-03-30T20:04:22.085Z,25.13
2023-03-30T20:06:50.726Z,25.12
2023-03-30T20:09:19.969Z,25.11
2023-03-30T20:11:48.712Z,25.08
2023-03-30T20:14:16.579Z,25.07
2023-03-30T20:16:44.595Z,25.06
2023-03-30T20:19:28.595Z,25.02
2023-03-30T20:21:58.073Z,25.00
2023-03-30T20:24:26.943Z,24.99
2023-03-30T20:26:54.904Z,24.98
2023-03-30T20:29:22.806Z,24.96
2023-03-30T20:31:51.233Z,24.94
2023-03-30T20:34:19.849Z,24.91
2023-03-30T20:36:50.193Z,24.91
2023-03-30T20:39:18.370Z,24.89
2023-03-30T20:41:46.013Z,24.87
2023-03-30T20:44:13.815Z,24.85
2023-03-30T20:46:43.433Z,24.85
2023-03-30T20:49:11.790Z,24.84
2023-03-30T20:51:40.231Z,24.83
2023-03-30T20:54:08.020Z,24.80
2023-03-30T20:56:35.937Z,24.80
2023-03-30T20:59:03.951Z,24.77
2023-03-30T21:01:31.780Z,24.76
2023-03-30T21:03:59.899Z,24.76
2023-03-30T21:06:28.799Z,24.74
2023-03-30T21:09:01.365Z,24.73
2023-03-30T21:11:29.329Z,24.72
2023-03-30T21:13:57.118Z,24.71
2023-03-30T21:16:25.012Z,24.69
2023-03-30T21:18:52.511Z,24.67
2023-03-30T21:21:20.511Z,24.66
2023-03-30T21:23:47.974Z,24.65
2023-03-30T21:26:15.895Z,24.64
2023-03-30T21:28:43.620Z,24.63
2023-03-30T21:31:12.399Z,24.61
2023-03-30T21:33:40.002Z,24.61
2023-03-30T21:36:08.493Z,24.59
2023-03-30T21:38:36.360Z,24.59
2023-03-30T21:41:07.718Z,24.57
2023-03-30T21:43:36.685Z,24.56
2023-03-30T21:46:05.953Z,24.55
2023-03-30T21:48:35.280Z,24.54
2023-03-30T21:51:05.022Z,24.54
2023-03-30T21:53:32.614Z,24.53
2023-03-30T21:56:00.208Z,24.52
2023-03-30T21:58:28.120Z,24.50
2023-03-30T22:01:09.031Z,24.49
2023-03-30T22:03:41.342Z,24.48
2023-03-30T22:06:10.059Z,24.47
2023-03-30T22:08:37.565Z,24.47
2023-03-30T22:11:07.253Z,24.45
2023-03-30T22:13:34.700Z,24.43
2023-03-30T22:16:04.626Z,24.42
2023-03-30T22:18:32.705Z,24.40
2023-03-30T22:21:00.792Z,24.40
2023-03-30T22:23:28.282Z,24.38
2023-03-30T22:25:56.063Z,24.39
2023-03-30T22:28:23.788Z,24.38
2023-03-30T22:30:51.495Z,24.38
2023-03-30T22:33:19.258Z,24.38
2023-03-30T22:35:47.184Z,24.38
2023-03-30T22:38:15.031Z,24.37
2023-03-30T22:40:42.792Z,24.35
2023-03-30T22:43:11.221Z,24.36
2023-03-30T22:45:39.293Z,24.34
2023-03-30T22:48:07.214Z,24.35
2023-03-30T22:50:34.892Z,24.34
2023-03-30T22:53:02.337Z,24.33
2023-03-30T22:55:30.051Z,24.31
2023-03-30T22:57:57.783Z,24.32
2023-03-30T23:00:25.556Z,24.30
2023-03-30T23:02:53.429Z,24.29
2023-03-30T23:05:25.564Z,24.28
2023-03-30T23:07:53.562Z,24.29
2023-03-30T23:10:22.325Z,24.27
2023-03-30T23:12:49.810Z,24.25
2023-03-30T23:15:18.600Z,24.25
2023-03-30T23:17:47.463Z,24.25
2023-03-30T23:20:15.442Z,24.25
2023-03-30T23:22:43.304Z,24.24
2023-03-30T23:25:10.829Z,24.23
2023-03-30T23:27:38.267Z,24.23
2023-03-30T23:30:06.666Z,24.21
2023-03-30T23:32:34.623Z,24.21
2023-03-30T23:35:05.301Z,24.21
2023-03-30T23:37:33.029Z,24.19
2023-03-30T23:40:02.046Z,24.19
2023-03-30T23:42:29.554Z,24.17
2023-03-30T23:44:57.274Z,24.17
2023-03-30T23:47:24.757Z,24.17
2023-03-30T23:49:52.261Z,24.16
2023-03-30T23:52:19.976Z,24.15
2023-03-30T23:54:52.477Z,24.14
2023-03-30T23:57:20.454Z,24.15
2023-03-30T23:59:48.012Z,24.14
